createdAt,value
2018-08-04T08:59:44.418Z,26.29
2018-08-04T09:02:13.642Z,27.01
2018-08-04T09:04:42.819Z,26.62
2018-08-04T09:07:11.950Z,26.60
2018-08-04T09:09:41.271Z,26.42
2018-08-04T09:12:10.536Z,26.68
2018-08-04T09:14:39.717Z,25.80
2018-08-04T09:17:08.912Z,26.58
2018-08-04T09:19:38.023Z,25.67
2018-08-04T09:22:07.311Z,25.72
2018-08-04T09:24:36.455Z,25.86
2018-08-04T09:27:05.689Z,26.16
2018-08-04T09:29:34.704Z,25.77
2018-08-04T09:32:03.839Z,25.12
2018-08-04T09:34:33.001Z,25.20
2018-08-04T09:42:56.097Z,24.69
2018-08-04T09:45:25.396Z,24.88
2018-08-04T09:47:54.565Z,24.48
2018-08-04T09:50:23.753Z,23.74
2018-08-04T09:52:53.070Z,24.70
2018-08-04T09:55:22.096Z,24.62
2018-08-04T10:06:52.312Z,24.14
2018-08-04T10:09:21.463Z,24.44
2018-08-04T10:11:50.680Z,24.67
2018-08-04T10:14:19.885Z,24.37
2018-08-04T10:16:49.015Z,25.15
2018-08-04T10:19:18.279Z,24.93
2018-08-04T10:21:47.436Z,23.95
2018-08-04T10:24:16.413Z,24.12
2018-08-04T10:26:45.672Z,23.39
2018-08-04T10:29:15.003Z,23.94
2018-08-04T10:31:44.236Z,24.71
2018-08-04T10:34:13.165Z,23.69
2018-08-04T10:36:42.256Z,23.36
2018-08-04T10:39:12.607Z,23.88
2018-08-04T10:41:41.809Z,24.14
2018-08-04T10:44:11.095Z,23.36
2018-08-04T10:46:40.249Z,23.04
2018-08-04T10:49:09.180Z,23.19
2018-08-04T10:51:38.282Z,23.12
2018-08-04T10:54:07.518Z,22.89
2018-08-04T10:56:36.695Z,23.00
2018-08-04T10:59:05.994Z,22.46
2018-08-04T11:01:35.083Z,22.68
2018-08-04T11:04:04.242Z,23.04
2018-08-04T11:06:33.403Z,23.41
2018-08-04T11:09:02.601Z,23.51
2018-08-04T11:11:31.772Z,22.88
2018-08-04T11:14:00.874Z,23.02
2018-08-04T11:16:30.104Z,22.80
2018-08-04T11:18:59.198Z,23.11
2018-08-04T11:21:28.333Z,23.38
2018-08-04T11:23:57.528Z,23.12
2018-08-04T11:26:26.556Z,22.70
2018-08-04T11:28:55.754Z,22.28
2018-08-04T11:31:24.920Z,21.90
2018-08-04T11:33:53.822Z,21.57
2018-08-04T11:36:22.736Z,21.72
2018-08-04T11:38:51.846Z,23.53
2018-08-04T11:41:21.043Z,22.49
2018-08-04T11:43:50.151Z,23.70
2018-08-04T11:46:19.367Z,22.42
2018-08-04T11:48:48.470Z,21.82
2018-08-04T11:57:46.262Z,22.50
2018-08-04T12:00:16.215Z,22.40
2018-08-04T12:02:45.411Z,20.97
2018-08-04T12:05:14.602Z,21.87
2018-08-04T12:07:43.799Z,22.35
2018-08-04T12:10:12.964Z,21.96
2018-08-04T12:12:42.096Z,22.90
2018-08-04T12:15:11.805Z,21.80
2018-08-04T12:17:40.701Z,22.24
2018-08-04T12:20:09.853Z,21.91
2018-08-04T12:22:39.104Z,20.95
2018-08-04T12:25:08.287Z,20.89
2018-08-04T12:27:37.894Z,21.47
2018-08-04T12:30:08.374Z,21.55
2018-08-04T12:32:37.838Z,21.93
2018-08-04T12:35:07.548Z,20.80
2018-08-04T12:37:36.889Z,21.96
2018-08-04T12:40:06.315Z,21.38
2018-08-04T12:42:35.399Z,21.39
2018-08-04T12:45:04.632Z,21.86
2018-08-04T12:47:33.775Z,21.65
2018-08-04T12:50:02.650Z,21.88
2018-08-04T12:52:31.890Z,21.76
2018-08-04T12:55:00.895Z,21.20
2018-08-04T12:57:30.018Z,21.64
2018-08-04T12:59:59.103Z,21.02
2018-08-04T13:02:28.416Z,21.85
2018-08-04T13:04:57.503Z,21.48
2018-08-04T13:07:26.629Z,21.23
2018-08-04T13:09:56.298Z,21.58
2018-08-04T13:12:25.407Z,22.27
2018-08-04T13:14:54.511Z,22.11
2018-08-04T13:17:23.663Z,21.76
2018-08-04T13:19:53.046Z,21.98
2018-08-04T13:22:22.145Z,21.92
2018-08-04T13:24:51.324Z,22.07
2018-08-04T13:27:20.421Z,22.50
2018-08-04T13:29:49.523Z,22.46
2018-08-04T13:32:18.662Z,22.47
2018-08-04T13:34:47.784Z,22.72
2018-08-04T13:37:17.043Z,23.00
2018-08-04T13:39:46.382Z,23.38
2018-08-04T13:42:15.462Z,22.90
2018-08-04T13:44:44.583Z,22.99
2018-08-04T13:47:13.773Z,24.13
2018-08-04T13:49:42.870Z,24.50
2018-08-04T13:52:11.963Z,23.92
2018-08-04T13:54:41.166Z,23.04
2018-08-04T13:57:10.281Z,22.75
2018-08-04T13:59:39.446Z,22.82
2018-08-04T14:02:08.570Z,21.53
2018-08-04T14:04:37.787Z,22.45
2018-08-04T14:07:06.901Z,22.00
2018-08-04T14:09:36.110Z,21.93
2018-08-04T14:12:05.383Z,22.23
2018-08-04T14:14:34.497Z,22.02
2018-08-04T14:17:03.659Z,22.92
2018-08-04T14:19:32.853Z,23.28
2018-08-04T14:22:01.932Z,23.44
2018-08-04T14:24:31.148Z,24.09
2018-08-04T14:27:00.366Z,22.65
2018-08-04T14:29:29.468Z,23.56
2018-08-04T14:31:58.598Z,24.70
2018-08-04T14:34:27.769Z,24.87
2018-08-04T14:36:56.894Z,25.88
2018-08-04T14:39:25.836Z,25.28
2018-08-04T14:41:54.918Z,26.53
2018-08-04T14:44:24.079Z,26.37
2018-08-04T14:46:53.255Z,26.43
2018-08-04T14:49:22.355Z,26.60
2018-08-04T14:51:51.515Z,25.83
2018-08-04T14:54:20.663Z,27.21
2018-08-04T14:56:49.784Z,26.73
2018-08-04T14:59:18.706Z,26.62
2018-08-04T15:01:47.837Z,26.04
2018-08-04T15:04:16.969Z,26.65
2018-08-04T15:06:46.119Z,26.32
2018-08-04T15:09:15.235Z,26.65
2018-08-04T15:11:44.409Z,27.86
2018-08-04T15:14:13.484Z,28.14
2018-08-04T15:16:42.693Z,27.57
2018-08-04T15:19:11.819Z,27.11
2018-08-04T15:21:40.933Z,28.01
2018-08-04T15:24:10.058Z,27.92
2018-08-04T15:26:38.939Z,28.27
2018-08-04T15:29:07.847Z,28.61
2018-08-04T15:31:36.953Z,28.13
2018-08-04T15:34:06.063Z,28.27
2018-08-04T15:36:35.262Z,27.84
2018-08-04T15:39:06.652Z,27.69
2018-08-04T15:41:35.814Z,29.18
2018-08-04T15:44:05.071Z,28.14
2018-08-04T15:46:34.518Z,28.69
2018-08-04T15:49:03.843Z,28.70
2018-08-04T15:51:32.935Z,29.03
2018-08-04T15:54:02.071Z,30.70
2018-08-04T15:56:31.288Z,30.86
2018-08-04T15:59:00.227Z,30.00
2018-08-04T16:01:29.346Z,30.33
2018-08-04T16:03:58.453Z,30.10
2018-08-04T16:06:27.676Z,30.02
2018-08-04T16:08:56.774Z,31.41
2018-08-04T16:11:25.880Z,30.44
2018-08-04T16:13:55.032Z,31.50
2018-08-04T16:16:24.214Z,31.33
2018-08-04T16:18:53.389Z,31.06
2018-08-04T16:21:22.590Z,31.88
2018-08-04T16:23:51.695Z,31.92
2018-08-04T16:26:20.822Z,32.25
2018-08-04T16:28:49.945Z,32.47
2018-08-04T16:31:19.055Z,32.72
2018-08-04T16:33:48.170Z,33.15
2018-08-04T16:36:17.254Z,31.95
2018-08-04T16:38:46.534Z,32.58
2018-08-04T16:41:15.782Z,32.10
2018-08-04T16:43:45.065Z,31.58
2018-08-04T16:46:14.203Z,32.47
2018-08-04T16:48:43.299Z,32.68
2018-08-04T16:51:12.566Z,33.69
2018-08-04T16:53:41.734Z,34.17
2018-08-04T16:56:10.668Z,34.22
2018-08-04T16:58:39.871Z,33.19
2018-08-04T17:01:09.060Z,33.59
2018-08-04T17:03:38.283Z,35.21
2018-08-04T17:06:07.560Z,33.57
2018-08-04T17:08:36.865Z,34.87
2018-08-04T17:11:05.962Z,35.65
2018-08-04T17:13:35.153Z,36.20
2018-08-04T17:16:04.367Z,36.41
2018-08-04T17:18:33.564Z,36.98
2018-08-04T17:21:02.599Z,37.40
2018-08-04T17:23:31.803Z,36.76
2018-08-04T17:26:00.952Z,37.04
2018-08-04T17:28:30.039Z,38.41
2018-08-04T17:30:59.228Z,38.56
2018-08-04T17:33:28.374Z,39.13
2018-08-04T17:35:57.542Z,39.07
2018-08-04T17:38:26.679Z,38.91
2018-08-04T17:40:55.940Z,39.54
2018-08-04T17:43:25.030Z,40.42
2018-08-04T17:45:54.186Z,40.28
2018-08-04T17:48:23.272Z,40.57
2018-08-04T17:50:52.375Z,40.19
2018-08-04T17:53:21.480Z,40.89
2018-08-04T17:55:50.497Z,41.61
2018-08-04T17:58:19.652Z,42.08
2018-08-04T18:00:48.968Z,41.32
2018-08-04T18:03:18.089Z,42.00
2018-08-04T18:05:46.944Z,41.67
2018-08-04T18:08:16.031Z,42.21
2018-08-04T18:10:45.120Z,43.11
2018-08-04T18:13:14.331Z,43.54
2018-08-04T18:15:43.533Z,44.28
2018-08-04T18:18:12.611Z,44.72
2018-08-04T18:20:41.842Z,43.88
2018-08-04T18:23:11.083Z,44.26
2018-08-04T18:25:40.210Z,44.92
2018-08-04T18:28:09.443Z,45.52
2018-08-04T18:30:38.627Z,46.27
2018-08-04T18:33:08.156Z,45.81
2018-08-04T18:35:37.196Z,45.82
2018-08-04T18:38:09.552Z,46.05
2018-08-04T18:40:38.414Z,45.79
2018-08-04T18:43:07.763Z,47.42
2018-08-04T18:45:36.964Z,47.51
2018-08-04T18:48:06.092Z,46.64
2018-08-04T18:50:35.258Z,47.36
2018-08-04T18:53:04.471Z,47.57
2018-08-04T18:55:33.506Z,47.67
2018-08-04T18:58:02.668Z,47.20
2018-08-04T19:00:31.858Z,47.91
2018-08-04T19:03:01.007Z,47.53
2018-08-04T19:05:30.084Z,48.07
2018-08-04T19:07:59.166Z,48.50
2018-08-04T19:10:28.253Z,49.19
2018-08-04T19:12:57.384Z,49.65
2018-08-04T19:15:26.533Z,50.01
2018-08-04T19:17:55.621Z,48.85
2018-08-04T19:20:24.734Z,49.65
2018-08-04T19:22:53.835Z,49.80
2018-08-04T19:25:22.932Z,50.18
2018-08-04T19:27:52.066Z,50.66
2018-08-04T19:30:21.958Z,50.90
2018-08-04T19:32:51.026Z,50.52
2018-08-04T19:35:20.234Z,50.55
2018-08-04T19:37:49.330Z,51.52
2018-08-04T19:40:18.437Z,51.81
2018-08-04T19:42:47.693Z,51.04
2018-08-04T19:45:17.412Z,51.94
2018-08-04T19:47:46.526Z,51.58
2018-08-04T19:50:15.654Z,52.23
2018-08-04T19:52:44.816Z,51.90
2018-08-04T19:55:13.929Z,52.71
2018-08-04T19:57:43.031Z,52.26
2018-08-04T20:00:12.428Z,52.59
2018-08-04T20:02:41.535Z,53.14
2018-08-04T20:05:10.643Z,53.09
2018-08-04T20:07:39.834Z,53.65
2018-08-04T20:10:08.942Z,53.45
2018-08-04T20:12:38.055Z,53.28
2018-08-04T20:15:07.933Z,54.72
2018-08-04T20:17:37.391Z,54.67
2018-08-04T20:20:06.514Z,55.22
2018-08-04T20:22:35.424Z,55.37
2018-08-04T20:25:05.503Z,55.76
2018-08-04T20:27:34.843Z,55.54
2018-08-04T20:30:04.050Z,56.12
2018-08-04T20:32:33.179Z,55.77
2018-08-04T20:35:02.492Z,56.50
2018-08-04T20:37:31.619Z,56.62
2018-08-04T20:40:00.510Z,56.73
2018-08-04T20:42:29.399Z,57.38
2018-08-04T20:44:58.362Z,57.19
2018-08-04T20:47:27.625Z,56.88
2018-08-04T20:49:56.758Z,58.13
2018-08-04T20:52:25.984Z,57.87
2018-08-04T20:54:55.141Z,58.25
2018-08-04T20:57:24.343Z,57.25
2018-08-04T20:59:53.510Z,57.62
2018-08-04T21:02:22.653Z,58.92
2018-08-04T21:04:51.714Z,58.60
2018-08-04T21:07:20.912Z,59.64
2018-08-04T21:09:49.984Z,59.72
2018-08-04T21:12:19.141Z,59.42
2018-08-04T21:14:48.223Z,59.62
2018-08-04T21:17:17.422Z,60.30
2018-08-04T21:19:46.630Z,59.57
2018-08-04T21:22:15.714Z,60.85
2018-08-04T21:24:44.911Z,60.30
2018-08-04T21:27:14.091Z,60.45
2018-08-04T21:29:43.284Z,61.24
2018-08-04T21:32:12.405Z,61.39
2018-08-04T21:34:41.546Z,60.72
2018-08-04T21:37:10.735Z,61.18
2018-08-04T21:39:39.886Z,61.25
2018-08-04T21:42:09.029Z,62.40
2018-08-04T21:44:38.160Z,62.03
2018-08-04T21:47:07.295Z,61.43
2018-08-04T21:49:36.583Z,61.73
2018-08-04T21:52:05.929Z,62.42
2018-08-04T21:54:35.067Z,61.82
2018-08-04T21:57:04.235Z,61.41
2018-08-04T21:59:33.385Z,62.10
2018-08-04T22:02:02.602Z,62.22
2018-08-04T22:04:31.724Z,62.50
2018-08-04T22:08:15.816Z,62.80
2018-08-04T22:10:45.031Z,62.67
2018-08-04T22:13:14.115Z,63.29
2018-08-04T22:15:43.219Z,62.32
2018-08-04T22:18:12.548Z,62.79
2018-08-04T22:20:41.804Z,62.73
2018-08-04T22:23:10.753Z,62.93
2018-08-04T22:25:39.907Z,63.92
2018-08-04T22:28:08.809Z,63.80
2018-08-04T22:30:37.879Z,64.12
2018-08-04T22:33:07.199Z,63.22
2018-08-04T22:35:36.409Z,63.37
2018-08-04T22:38:05.540Z,63.17
2018-08-04T22:40:34.669Z,64.03
2018-08-04T22:43:03.570Z,64.67
2018-08-04T22:46:15.167Z,64.16
2018-08-04T22:48:45.659Z,63.38
2018-08-04T22:51:18.943Z,64.37
2018-08-04T22:53:48.361Z,64.09
2018-08-04T22:56:17.466Z,64.88
2018-08-04T22:58:46.718Z,64.48
2018-08-04T23:01:15.916Z,65.06
2018-08-04T23:06:14.048Z,65.91
2018-08-04T23:08:43.235Z,65.26
2018-08-04T23:11:12.508Z,66.47
2018-08-04T23:13:41.620Z,66.73
2018-08-04T23:16:10.728Z,65.99
2018-08-04T23:18:39.979Z,66.44
2018-08-04T23:21:09.151Z,66.63
2018-08-04T23:23:38.256Z,67.08
2018-08-04T23:26:07.601Z,67.82
2018-08-04T23:28:36.743Z,67.32
2018-08-04T23:34:03.125Z,68.35
2018-08-04T23:36:32.066Z,68.82
2018-08-04T23:39:01.224Z,69.53
2018-08-04T23:41:30.210Z,69.51
2018-08-04T23:43:59.123Z,69.16
2018-08-04T23:46:28.264Z,69.35
2018-08-04T23:48:57.491Z,69.35
2018-08-04T23:51:27.003Z,69.92
2018-08-04T23:53:56.033Z,70.57
2018-08-04T23:56:25.188Z,70.39
2018-08-04T23:58:54.648Z,70.57
